Time;durP1;ratioP1;P1;durP2;ratioP2;P2;SDS_P1;SDS_P2;PMS_P1;PMS_P2;Temp;Humidity;BMP_temperature;BMP_pressure;BME280_temperature;BME280_humidity;BME280_pressure;Samples;Min_cycle;Max_cycle;Signal;HPM_P1;HPM_P2
2021/08/11 00:01:39;;;;;;;4.15;2.47;;;15.40;99.90;;;;;;4975778;28;20125;-88
2021/08/11 00:04:05;;;;;;;4.07;2.88;;;15.40;99.90;;;;;;4976320;28;20037;-87
2021/08/11 00:06:30;;;;;;;4.45;2.80;;;15.40;99.90;;;;;;4976170;28;20030;-87
2021/08/11 00:08:56;;;;;;;3.10;2.38;;;15.30;99.90;;;;;;4991986;28;20109;-87
2021/08/11 00:11:22;;;;;;;4.57;2.65;;;15.30;99.90;;;;;;4989638;28;20544;-86
2021/08/11 00:13:47;;;;;;;5.32;2.97;;;15.30;99.90;;;;;;4958370;28;20039;-89
2021/08/11 00:16:15;;;;;;;4.28;2.75;;;15.30;99.90;;;;;;4975955;28;20042;-88
2021/08/11 00:18:40;;;;;;;4.85;2.92;;;15.30;99.90;;;;;;4997597;28;20057;-86
2021/08/11 00:21:07;;;;;;;3.63;2.60;;;15.30;99.90;;;;;;4988346;28;20057;-86
2021/08/11 00:23:33;;;;;;;3.83;2.75;;;15.30;99.90;;;;;;4944100;28;20093;-87
2021/08/11 00:25:58;;;;;;;4.85;2.72;;;15.30;99.90;;;;;;4988823;28;20039;-87
2021/08/11 00:28:25;;;;;;;4.55;3.13;;;15.30;99.90;;;;;;4947738;28;20454;-88
2021/08/11 00:30:52;;;;;;;5.43;2.90;;;15.30;99.90;;;;;;4991385;28;20479;-87
2021/08/11 00:33:19;;;;;;;3.53;2.53;;;15.30;99.90;;;;;;4975430;28;20026;-88
2021/08/11 00:35:45;;;;;;;4.00;2.53;;;15.40;99.90;;;;;;4959653;28;20156;-87
2021/08/11 00:38:11;;;;;;;5.70;3.20;;;15.30;99.90;;;;;;4991809;28;20034;-88
2021/08/11 00:40:38;;;;;;;4.93;2.72;;;15.30;99.90;;;;;;4975378;28;20065;-88
2021/08/11 00:43:10;;;;;;;4.18;2.30;;;15.30;99.90;;;;;;4975377;28;20522;-87
2021/08/11 00:45:40;;;;;;;4.40;2.75;;;15.20;99.90;;;;;;4975773;28;20035;-89
2021/08/11 00:48:10;;;;;;;4.68;3.05;;;15.30;99.90;;;;;;4975345;28;20121;-89
2021/08/11 00:50:38;;;;;;;3.58;2.42;;;15.20;99.90;;;;;;4955699;28;20030;-87
2021/08/11 00:53:07;;;;;;;4.88;2.85;;;15.20;99.90;;;;;;4966041;28;20125;-89
2021/08/11 00:55:39;;;;;;;4.47;2.67;;;15.20;99.90;;;;;;4968235;28;20030;-89
2021/08/11 00:58:11;;;;;;;4.63;2.50;;;15.10;99.90;;;;;;4988424;28;20038;-88
2021/08/11 01:00:45;;;;;;;3.58;2.63;;;15.10;99.90;;;;;;4969180;28;20409;-89
2021/08/11 01:03:16;;;;;;;5.72;2.67;;;15.00;99.90;;;;;;4946355;28;20041;-87
2021/08/11 01:05:44;;;;;;;4.78;2.85;;;15.00;99.90;;;;;;4991335;28;20073;-88
2021/08/11 01:08:12;;;;;;;5.05;2.80;;;14.90;99.90;;;;;;4972496;28;20163;-86
2021/08/11 01:10:39;;;;;;;4.70;2.75;;;14.90;99.90;;;;;;4971368;28;20034;-87
2021/08/11 01:13:06;;;;;;;3.95;2.63;;;14.80;99.90;;;;;;4971280;28;20038;-89
2021/08/11 01:15:33;;;;;;;6.43;2.65;;;14.80;99.90;;;;;;4987790;28;20184;-86
2021/08/11 01:17:59;;;;;;;4.45;2.55;;;14.70;99.90;;;;;;4957281;28;20120;-89
2021/08/11 01:20:25;;;;;;;5.50;3.28;;;14.70;99.90;;;;;;5006823;28;20103;-89
2021/08/11 01:23:04;;;;;;;3.58;2.45;;;14.70;99.90;;;;;;4974483;28;20038;-87
2021/08/11 01:25:34;;;;;;;6.18;3.28;;;14.60;99.90;;;;;;4990875;28;20026;-88
2021/08/11 01:28:40;;;;;;;5.65;2.83;;;14.60;99.90;;;;;;4959891;28;20031;-89
2021/08/11 01:31:18;;;;;;;3.88;2.80;;;14.60;99.90;;;;;;4990399;28;20117;-87
2021/08/11 01:33:58;;;;;;;4.65;2.65;;;14.60;99.90;;;;;;4990869;28;20085;-87
2021/08/11 01:36:36;;;;;;;5.43;2.67;;;14.50;99.90;;;;;;4974651;28;20033;-87
2021/08/11 01:39:24;;;;;;;8.27;3.42;;;14.50;99.90;;;;;;4972215;28;20026;-86
2021/08/11 01:42:06;;;;;;;5.32;2.92;;;14.40;99.90;;;;;;4970228;28;20031;-87
2021/08/11 01:44:43;;;;;;;4.03;2.70;;;14.40;99.90;;;;;;4974452;28;20567;-88
2021/08/11 01:47:14;;;;;;;5.32;2.97;;;14.40;99.90;;;;;;4974220;28;20026;-87
2021/08/11 01:49:44;;;;;;;4.57;3.08;;;14.40;99.90;;;;;;4990074;28;20493;-90
2021/08/11 01:52:09;;;;;;;4.03;2.70;;;14.30;99.90;;;;;;4974059;28;20058;-87
2021/08/11 01:54:36;;;;;;;4.93;3.30;;;14.30;99.90;;;;;;4958499;28;20065;-87
2021/08/11 01:57:05;;;;;;;5.78;3.22;;;14.30;99.90;;;;;;4990514;28;20038;-89
2021/08/11 01:59:33;;;;;;;4.30;2.80;;;14.30;99.90;;;;;;5007082;28;20088;-86
2021/08/11 02:02:00;;;;;;;4.97;3.20;;;14.20;99.90;;;;;;4986797;28;20514;-88
2021/08/11 02:04:26;;;;;;;5.13;2.65;;;14.20;99.90;;;;;;4970931;28;20062;-87
2021/08/11 02:06:53;;;;;;;4.40;2.78;;;14.20;99.90;;;;;;4974013;28;20026;-87
2021/08/11 02:09:20;;;;;;;5.60;3.15;;;14.30;99.90;;;;;;4986851;28;20031;-87
2021/08/11 02:11:47;;;;;;;5.97;3.70;;;14.30;99.90;;;;;;4946127;28;20038;-87
2021/08/11 02:14:15;;;;;;;5.97;3.65;;;14.20;99.90;;;;;;4990320;28;20520;-87
2021/08/11 02:16:43;;;;;;;7.38;3.47;;;14.10;99.90;;;;;;4987211;28;20504;-87
2021/08/11 02:19:09;;;;;;;6.60;3.30;;;14.00;99.90;;;;;;4954321;28;20401;-88
2021/08/11 02:21:37;;;;;;;4.65;3.15;;;14.00;99.90;;;;;;4973456;28;20254;-87
2021/08/11 02:24:04;;;;;;;6.30;3.50;;;14.00;99.90;;;;;;4989836;28;20054;-88
2021/08/11 02:26:50;;;;;;;7.07;3.38;;;13.90;99.90;;;;;;4986993;28;20051;-88
2021/08/11 02:29:21;;;;;;;3.93;2.90;;;13.80;99.90;;;;;;4954460;28;20039;-87
2021/08/11 02:31:55;;;;;;;6.38;3.33;;;13.80;99.90;;;;;;4954506;28;20198;-87
2021/08/11 02:34:38;;;;;;;3.95;3.08;;;13.70;99.90;;;;;;4939541;28;20039;-88
2021/08/11 02:37:14;;;;;;;5.75;3.17;;;13.70;99.90;;;;;;4954780;28;20113;-87
2021/08/11 02:39:59;;;;;;;6.53;3.65;;;13.70;99.90;;;;;;4986408;28;20027;-87
2021/08/11 02:42:33;;;;;;;6.40;3.50;;;13.70;99.90;;;;;;4977264;28;20446;-88
2021/08/11 02:45:01;;;;;;;4.68;3.30;;;13.80;99.90;;;;;;4970896;28;20035;-87
2021/08/11 02:47:34;;;;;;;6.22;2.90;;;13.70;99.90;;;;;;4973017;28;20059;-86
2021/08/11 02:50:01;;;;;;;5.88;3.03;;;13.70;99.90;;;;;;4989276;28;20030;-90
2021/08/11 02:52:30;;;;;;;4.70;3.05;;;13.80;99.90;;;;;;4957318;28;20041;-88
2021/08/11 02:54:57;;;;;;;6.53;3.75;;;13.80;99.90;;;;;;4991100;28;20030;-87
2021/08/11 02:57:24;;;;;;;7.07;3.20;;;13.80;99.90;;;;;;4972995;28;20420;-86
2021/08/11 02:59:51;;;;;;;6.78;3.70;;;13.80;99.90;;;;;;4976614;28;20037;-88
2021/08/11 03:02:17;;;;;;;6.22;3.58;;;13.80;99.90;;;;;;4960486;28;20082;-86
2021/08/11 03:04:43;;;;;;;3.97;3.20;;;13.80;99.90;;;;;;4965040;28;20026;-87
2021/08/11 03:07:10;;;;;;;7.22;3.70;;;13.90;99.90;;;;;;4975976;28;20027;-88
2021/08/11 03:09:37;;;;;;;6.28;3.33;;;13.90;99.90;;;;;;4947066;28;20378;-87
2021/08/11 03:12:07;;;;;;;7.55;3.78;;;13.80;99.90;;;;;;4975750;28;20037;-88
2021/08/11 03:14:36;;;;;;;6.40;3.63;;;13.70;99.90;;;;;;4944934;28;20065;-87
2021/08/11 03:17:07;;;;;;;5.60;3.92;;;13.70;99.90;;;;;;4965308;28;20038;-86
2021/08/11 03:19:32;;;;;;;4.57;3.65;;;13.60;99.90;;;;;;4957753;28;20038;-88
2021/08/11 03:21:58;;;;;;;5.10;3.45;;;13.60;99.90;;;;;;4935464;28;20479;-88
2021/08/11 03:24:24;;;;;;;5.82;3.53;;;13.50;99.90;;;;;;4942438;28;20126;-87
2021/08/11 03:26:50;;;;;;;4.53;3.20;;;13.50;99.90;;;;;;4992765;28;20054;-87
2021/08/11 03:29:16;;;;;;;5.25;3.17;;;13.40;99.90;;;;;;4960824;28;20057;-88
2021/08/11 03:31:44;;;;;;;6.43;3.30;;;13.40;99.90;;;;;;4976333;28;20060;-87
2021/08/11 03:34:11;;;;;;;5.70;3.47;;;13.40;99.90;;;;;;4960308;28;20130;-89
2021/08/11 03:36:38;;;;;;;4.65;3.33;;;13.40;99.90;;;;;;4959520;28;20026;-89
2021/08/11 03:39:03;;;;;;;5.60;3.22;;;13.40;99.90;;;;;;4975820;28;20049;-89
2021/08/11 03:41:33;;;;;;;5.40;3.38;;;13.30;99.90;;;;;;4945079;28;20030;-87
2021/08/11 03:43:58;;;;;;;4.82;3.00;;;13.30;99.90;;;;;;4992385;28;20034;-86
2021/08/11 03:46:30;;;;;;;4.82;3.00;;;13.30;99.90;;;;;;4959883;28;20027;-88
2021/08/11 03:48:56;;;;;;;6.00;3.50;;;13.30;99.90;;;;;;4941567;28;20030;-87
2021/08/11 03:51:22;;;;;;;5.10;3.50;;;13.30;99.90;;;;;;4965266;28;20034;-87
2021/08/11 03:53:48;;;;;;;5.65;3.22;;;13.20;99.90;;;;;;4976278;28;20029;-88
2021/08/11 03:56:14;;;;;;;6.03;2.80;;;13.20;99.90;;;;;;4975474;28;20037;-88
2021/08/11 03:58:41;;;;;;;5.85;3.70;;;13.30;99.90;;;;;;4964693;28;20027;-86
2021/08/11 04:01:07;;;;;;;6.97;4.00;;;13.20;99.90;;;;;;4991559;28;20041;-88
2021/08/11 04:03:33;;;;;;;6.10;3.55;;;13.20;99.90;;;;;;4990898;28;20034;-86
2021/08/11 04:05:59;;;;;;;6.60;3.42;;;13.20;99.90;;;;;;4976955;28;20070;-88
2021/08/11 04:08:24;;;;;;;4.68;3.47;;;13.20;99.90;;;;;;4991979;28;20077;-88
2021/08/11 04:10:51;;;;;;;7.60;3.90;;;13.20;99.90;;;;;;4975372;28;20041;-87
2021/08/11 04:13:18;;;;;;;7.68;4.10;;;13.20;99.90;;;;;;4991143;28;20073;-88
2021/08/11 04:15:45;;;;;;;5.85;3.72;;;13.20;99.90;;;;;;4992263;28;20042;-88
2021/08/11 04:18:11;;;;;;;6.80;3.65;;;13.20;99.90;;;;;;4992411;28;20043;-90
2021/08/11 04:20:37;;;;;;;6.60;3.10;;;13.20;99.90;;;;;;4991509;28;20038;-89
2021/08/11 04:23:04;;;;;;;6.03;3.95;;;13.20;99.90;;;;;;4992638;28;20554;-87
2021/08/11 04:25:30;;;;;;;4.28;3.30;;;13.20;99.90;;;;;;4975858;28;20098;-87
2021/08/11 04:27:57;;;;;;;3.92;3.08;;;13.20;99.90;;;;;;4960523;28;20070;-88
2021/08/11 04:30:22;;;;;;;4.97;3.00;;;13.20;99.90;;;;;;4976964;28;20546;-89
2021/08/11 04:32:48;;;;;;;4.30;3.20;;;13.30;99.90;;;;;;4975575;28;20138;-87
2021/08/11 04:35:14;;;;;;;5.65;3.75;;;13.30;99.90;;;;;;4991910;28;20041;-87
2021/08/11 04:37:40;;;;;;;5.30;3.40;;;13.30;99.90;;;;;;4974238;28;20121;-89
2021/08/11 04:40:07;;;;;;;5.13;3.30;;;13.40;99.90;;;;;;4992805;28;20096;-87
2021/08/11 04:42:34;;;;;;;5.30;3.13;;;13.40;99.90;;;;;;4954155;28;20035;-89
2021/08/11 04:45:00;;;;;;;4.65;2.97;;;13.40;99.90;;;;;;4989790;28;20039;-89
2021/08/11 04:47:27;;;;;;;7.97;3.70;;;13.40;99.90;;;;;;4991866;28;20173;-89
2021/08/11 04:49:52;;;;;;;5.70;3.30;;;13.40;99.90;;;;;;4959066;28;20425;-87
2021/08/11 04:52:18;;;;;;;5.57;3.03;;;13.50;99.90;;;;;;4975108;28;20076;-89
2021/08/11 04:54:44;;;;;;;6.85;3.47;;;13.50;99.90;;;;;;4989524;28;20064;-89
2021/08/11 04:57:09;;;;;;;5.30;2.97;;;13.60;99.90;;;;;;4972924;28;20070;-88
2021/08/11 04:59:35;;;;;;;5.90;3.13;;;13.60;99.90;;;;;;4994979;28;20050;-89
2021/08/11 05:02:00;;;;;;;5.82;3.83;;;13.70;99.90;;;;;;4975769;28;20049;-89
2021/08/11 05:04:27;;;;;;;5.78;3.10;;;13.80;99.90;;;;;;4973328;28;20674;-89
2021/08/11 05:06:53;;;;;;;5.43;3.30;;;13.90;99.90;;;;;;4985280;28;20030;-89
2021/08/11 05:09:18;;;;;;;4.70;3.38;;;14.00;99.90;;;;;;4981960;28;20118;-89
2021/08/11 05:11:44;;;;;;;4.65;3.35;;;14.10;99.90;;;;;;4993101;28;20050;-88
2021/08/11 05:14:11;;;;;;;4.22;3.05;;;14.10;99.90;;;;;;4988805;28;20050;-88
2021/08/11 05:16:37;;;;;;;4.65;3.40;;;14.20;99.90;;;;;;4991773;28;20042;-88
2021/08/11 05:19:02;;;;;;;5.40;3.53;;;14.30;99.90;;;;;;4992657;28;20052;-89
2021/08/11 05:21:28;;;;;;;5.75;3.88;;;14.30;99.90;;;;;;4975606;28;20081;-88
2021/08/11 05:23:54;;;;;;;6.35;3.65;;;14.30;99.90;;;;;;4992364;28;20569;-89
2021/08/11 05:26:20;;;;;;;7.43;3.05;;;14.40;99.90;;;;;;4992253;28;20062;-88
2021/08/11 05:28:46;;;;;;;5.85;2.80;;;14.40;99.90;;;;;;4976025;28;20073;-89
2021/08/11 05:31:12;;;;;;;5.28;3.00;;;14.50;99.90;;;;;;4975430;28;20065;-88
2021/08/11 05:33:38;;;;;;;4.93;3.20;;;14.50;99.90;;;;;;4988447;28;20034;-87
2021/08/11 05:36:04;;;;;;;6.90;3.53;;;14.50;99.90;;;;;;4972712;28;20045;-88
2021/08/11 05:38:34;;;;;;;6.72;3.95;;;14.60;99.90;;;;;;4975256;28;20033;-89
2021/08/11 05:41:00;;;;;;;8.18;3.75;;;14.70;99.90;;;;;;4990955;28;20440;-87
2021/08/11 05:43:26;;;;;;;4.43;3.45;;;14.90;99.90;;;;;;4974200;28;20022;-87
2021/08/11 05:45:52;;;;;;;8.23;3.63;;;15.10;99.90;;;;;;4974370;28;20042;-88
2021/08/11 05:48:19;;;;;;;5.00;3.25;;;15.20;99.90;;;;;;4990929;28;20034;-89
2021/08/11 05:50:45;;;;;;;5.35;3.30;;;15.50;99.90;;;;;;4985569;28;20045;-88
2021/08/11 05:53:10;;;;;;;5.57;3.17;;;15.70;99.90;;;;;;4986035;28;20035;-88
2021/08/11 05:55:36;;;;;;;5.05;3.17;;;16.00;99.90;;;;;;4961944;28;20497;-87
2021/08/11 05:58:02;;;;;;;6.22;3.17;;;16.30;99.90;;;;;;4972831;28;20038;-87
2021/08/11 06:00:28;;;;;;;4.05;3.10;;;16.50;99.90;;;;;;4990204;28;20038;-87
2021/08/11 06:02:56;;;;;;;6.22;3.92;;;16.90;99.90;;;;;;4973874;28;20031;-88
2021/08/11 06:05:45;;;;;;;7.93;4.10;;;17.20;99.90;;;;;;4987161;28;20022;-89
2021/08/11 06:08:11;;;;;;;6.88;3.80;;;17.60;99.90;;;;;;4956824;28;20034;-88
2021/08/11 06:10:37;;;;;;;6.47;3.22;;;18.00;99.90;;;;;;4957625;28;20080;-87
2021/08/11 06:13:03;;;;;;;10.52;3.65;;;18.30;99.90;;;;;;4955986;28;20027;-87
2021/08/11 06:15:29;;;;;;;6.68;3.92;;;18.70;99.90;;;;;;4970771;28;20473;-86
2021/08/11 06:17:54;;;;;;;6.85;3.97;;;18.90;99.90;;;;;;4970939;28;20034;-87
2021/08/11 06:20:22;;;;;;;5.70;3.25;;;19.20;99.90;;;;;;4959006;28;20023;-90
2021/08/11 06:22:49;;;;;;;4.68;3.05;;;19.50;99.90;;;;;;4988387;28;20440;-88
2021/08/11 06:25:15;;;;;;;4.85;2.90;;;19.80;99.90;;;;;;4971705;28;20089;-88
2021/08/11 06:27:41;;;;;;;4.10;3.10;;;20.10;99.90;;;;;;4961243;28;20031;-86
2021/08/11 06:30:08;;;;;;;4.30;2.50;;;20.20;99.90;;;;;;4977166;28;20030;-85
2021/08/11 06:32:34;;;;;;;4.57;3.33;;;20.40;99.90;;;;;;4970835;28;20094;-87
2021/08/11 06:34:59;;;;;;;5.50;3.15;;;20.60;99.90;;;;;;4980244;28;20061;-86
2021/08/11 06:37:25;;;;;;;4.18;2.83;;;20.70;99.90;;;;;;4961666;28;20050;-87
2021/08/11 06:39:51;;;;;;;5.13;2.80;;;20.90;99.90;;;;;;4975411;28;20030;-89
2021/08/11 06:42:17;;;;;;;3.25;2.72;;;21.00;99.90;;;;;;4986069;28;20617;-88
2021/08/11 06:44:56;;;;;;;5.75;2.85;;;21.20;99.90;;;;;;4943946;28;20057;-86
2021/08/11 06:47:22;;;;;;;4.20;2.95;;;21.40;99.90;;;;;;4975880;28;20026;-87
2021/08/11 06:49:48;;;;;;;3.92;2.75;;;21.70;99.90;;;;;;4976116;28;20189;-86
2021/08/11 06:52:14;;;;;;;5.80;2.97;;;21.90;99.90;;;;;;4981566;28;20552;-87
2021/08/11 06:54:40;;;;;;;4.15;2.78;;;22.10;99.90;;;;;;4961544;28;20178;-87
2021/08/11 06:57:06;;;;;;;3.65;2.97;;;22.40;99.90;;;;;;4943514;28;20053;-88
2021/08/11 06:59:31;;;;;;;3.35;2.60;;;22.60;99.90;;;;;;4959179;28;20038;-89
2021/08/11 07:01:57;;;;;;;3.38;2.65;;;22.80;99.90;;;;;;4975982;28;20034;-88
2021/08/11 07:04:23;;;;;;;3.80;2.95;;;22.90;99.90;;;;;;4961112;28;20532;-88
2021/08/11 07:06:48;;;;;;;3.05;2.75;;;23.10;99.90;;;;;;4977170;28;20030;-86
2021/08/11 07:09:16;;;;;;;3.35;2.38;;;23.40;99.90;;;;;;4942819;28;20062;-86
2021/08/11 07:11:42;;;;;;;3.70;2.50;;;23.50;99.90;;;;;;4975680;28;20050;-87
2021/08/11 07:14:07;;;;;;;3.30;2.38;;;23.70;99.90;;;;;;4994529;28;20073;-87
2021/08/11 07:16:35;;;;;;;3.72;2.53;;;23.80;99.90;;;;;;4956347;28;20030;-88
2021/08/11 07:19:00;;;;;;;3.88;2.00;;;23.90;99.90;;;;;;4976814;28;20481;-88
2021/08/11 07:21:26;;;;;;;3.30;2.45;;;24.00;99.90;;;;;;4966906;28;20045;-88
2021/08/11 07:23:52;;;;;;;3.38;2.30;;;23.90;99.90;;;;;;4980295;28;20026;-87
2021/08/11 07:26:19;;;;;;;3.85;2.25;;;23.90;99.90;;;;;;4948004;28;20049;-88
2021/08/11 07:28:46;;;;;;;3.72;2.55;;;24.00;99.90;;;;;;4974936;28;20386;-88
2021/08/11 07:31:11;;;;;;;4.00;2.33;;;24.20;99.90;;;;;;4962533;28;20046;-88
2021/08/11 07:33:37;;;;;;;4.60;2.42;;;24.40;99.90;;;;;;4962009;28;20023;-87
2021/08/11 07:36:04;;;;;;;2.50;2.00;;;24.60;99.90;;;;;;4959862;28;20034;-88
2021/08/11 07:38:30;;;;;;;2.40;1.83;;;24.50;99.90;;;;;;4978850;28;20057;-88
2021/08/11 07:40:56;;;;;;;4.43;1.98;;;24.70;99.90;;;;;;4962036;28;20493;-88
2021/08/11 07:43:21;;;;;;;3.35;1.88;;;24.70;99.90;;;;;;4976053;28;20039;-87
2021/08/11 07:45:48;;;;;;;2.42;1.83;;;24.50;99.90;;;;;;4959537;28;20038;-88
2021/08/11 07:48:14;;;;;;;2.20;1.80;;;24.30;99.90;;;;;;4974928;28;20026;-86
2021/08/11 07:50:40;;;;;;;2.40;1.80;;;24.30;99.90;;;;;;4958907;28;20396;-85
2021/08/11 07:53:06;;;;;;;2.67;1.75;;;24.20;99.90;;;;;;4987652;28;20058;-84
2021/08/11 07:55:32;;;;;;;2.17;1.33;;;24.20;99.90;;;;;;4960559;28;20027;-85
2021/08/11 07:57:58;;;;;;;3.38;2.05;;;24.10;99.90;;;;;;4975469;28;20035;-85
2021/08/11 08:00:24;;;;;;;2.47;1.70;;;24.10;99.90;;;;;;4989632;28;20038;-85
2021/08/11 08:02:50;;;;;;;2.17;1.40;;;24.00;99.90;;;;;;4969371;28;20035;-86
2021/08/11 08:05:16;;;;;;;1.30;1.20;;;24.00;99.90;;;;;;4974644;28;20220;-86
2021/08/11 08:07:42;;;;;;;2.33;1.63;;;24.00;99.90;;;;;;4974401;28;20089;-85
2021/08/11 08:10:08;;;;;;;3.15;1.60;;;24.00;99.90;;;;;;4959990;28;20101;-86
2021/08/11 08:12:34;;;;;;;1.73;1.38;;;23.90;99.90;;;;;;4976168;28;20627;-86
2021/08/11 08:14:59;;;;;;;2.58;1.75;;;23.70;99.90;;;;;;4972556;28;20045;-86
2021/08/11 08:17:26;;;;;;;2.30;1.50;;;23.50;99.90;;;;;;4959679;28;20428;-86
2021/08/11 08:19:52;;;;;;;2.30;1.83;;;23.40;99.90;;;;;;4991547;28;20038;-86
2021/08/11 08:22:18;;;;;;;3.22;2.08;;;23.30;99.90;;;;;;4975008;28;20034;-86
2021/08/11 08:24:44;;;;;;;2.10;1.60;;;23.30;99.90;;;;;;4963661;28;20523;-86
2021/08/11 08:27:10;;;;;;;2.92;1.70;;;23.40;99.90;;;;;;4975968;28;20266;-85
2021/08/11 08:29:36;;;;;;;2.15;1.55;;;23.50;99.90;;;;;;4974495;28;20548;-85
2021/08/11 08:32:02;;;;;;;2.45;1.60;;;23.60;99.90;;;;;;4980395;28;20130;-84
2021/08/11 08:34:27;;;;;;;2.20;1.60;;;23.80;99.90;;;;;;4984066;28;20128;-83
2021/08/11 08:36:53;;;;;;;3.08;1.90;;;23.90;99.90;;;;;;4951407;28;20134;-85
2021/08/11 08:39:20;;;;;;;2.50;1.88;;;23.80;99.90;;;;;;4944146;28;20034;-88
2021/08/11 08:41:46;;;;;;;2.88;2.10;;;23.60;99.90;;;;;;4983677;28;20042;-87
2021/08/11 08:44:13;;;;;;;1.52;1.38;;;23.50;99.90;;;;;;4978821;28;20477;-86
2021/08/11 08:46:41;;;;;;;4.82;1.83;;;23.50;99.90;;;;;;4966939;28;20038;-86
2021/08/11 08:49:08;;;;;;;1.73;1.60;;;23.40;99.90;;;;;;4969148;28;20039;-85
2021/08/11 08:51:43;;;;;;;1.92;1.67;;;23.40;99.90;;;;;;4975306;28;20106;-86
2021/08/11 08:54:10;;;;;;;6.82;1.77;;;23.40;99.90;;;;;;4993056;28;20045;-87
2021/08/11 08:56:37;;;;;;;1.65;1.35;;;23.40;99.90;;;;;;4997712;28;20039;-85
2021/08/11 08:59:04;;;;;;;1.67;1.48;;;23.50;99.90;;;;;;4963323;28;20049;-86
2021/08/11 09:01:30;;;;;;;2.33;1.75;;;23.50;99.90;;;;;;4990741;28;20046;-86
2021/08/11 09:03:56;;;;;;;1.73;1.60;;;23.50;99.90;;;;;;4976951;28;20395;-88
2021/08/11 09:06:22;;;;;;;3.72;1.55;;;23.50;99.90;;;;;;4978876;28;20050;-86
2021/08/11 09:09:01;;;;;;;2.60;1.60;;;23.60;99.90;;;;;;4938035;28;20039;-87
2021/08/11 09:11:27;;;;;;;1.98;1.30;;;23.70;99.90;;;;;;4967879;28;20483;-88
2021/08/11 09:14:23;;;;;;;2.28;1.48;;;23.80;99.90;;;;;;4941529;28;20121;-86
2021/08/11 09:16:54;;;;;;;1.90;1.42;;;23.90;99.90;;;;;;5002800;28;20038;-87
2021/08/11 09:19:20;;;;;;;2.10;1.50;;;23.90;99.90;;;;;;4971130;28;20474;-87
2021/08/11 09:22:01;;;;;;;1.73;1.17;;;23.70;99.90;;;;;;4967436;28;20041;-88
2021/08/11 09:24:27;;;;;;;2.65;1.35;;;23.70;99.90;;;;;;4984931;28;20286;-87
2021/08/11 09:26:54;;;;;;;2.55;1.45;;;23.70;99.90;;;;;;4971458;28;20037;-86
2021/08/11 09:29:22;;;;;;;1.55;1.33;;;23.50;99.90;;;;;;4970475;28;20425;-86
2021/08/11 09:31:48;;;;;;;1.23;1.13;;;23.50;99.90;;;;;;4988405;28;20177;-87
2021/08/11 09:34:13;;;;;;;1.60;1.00;;;23.40;99.90;;;;;;4979211;28;20500;-86
2021/08/11 09:36:51;;;;;;;1.08;1.00;;;23.40;99.90;;;;;;4991918;28;20105;-88
2021/08/11 09:39:18;;;;;;;1.98;1.30;;;23.30;99.90;;;;;;4991036;28;20045;-90
2021/08/11 09:42:01;;;;;;;3.10;1.45;;;23.30;99.90;;;;;;4971094;28;20026;-87
2021/08/11 09:44:28;;;;;;;2.15;1.27;;;23.20;99.90;;;;;;4987980;28;20042;-88
2021/08/11 09:46:54;;;;;;;1.23;1.10;;;23.20;99.90;;;;;;4972934;28;20027;-86
2021/08/11 09:49:23;;;;;;;1.13;1.02;;;23.20;99.90;;;;;;4967108;28;20077;-87
2021/08/11 09:52:02;;;;;;;2.30;1.23;;;23.20;99.90;;;;;;5001975;28;20038;-90
2021/08/11 09:54:30;;;;;;;1.15;1.00;;;23.30;99.90;;;;;;4946874;28;20068;-88
2021/08/11 09:56:57;;;;;;;2.17;1.10;;;23.40;99.90;;;;;;4969884;28;20305;-87
2021/08/11 09:59:23;;;;;;;1.27;1.00;;;23.50;99.90;;;;;;4974519;28;20037;-87
2021/08/11 10:01:49;;;;;;;1.15;1.05;;;23.50;99.90;;;;;;4962050;28;20039;-87
2021/08/11 10:04:15;;;;;;;1.50;1.27;;;23.50;99.90;;;;;;4966514;28;20026;-87
2021/08/11 10:06:43;;;;;;;2.58;1.02;;;23.50;98.50;;;;;;4990929;28;20033;-86
2021/08/11 10:09:24;;;;;;;1.17;1.08;;;23.60;99.90;;;;;;4944559;28;20128;-84
2021/08/11 10:11:55;;;;;;;1.50;1.08;;;23.60;99.90;;;;;;4971622;28;20121;-86
2021/08/11 10:14:27;;;;;;;1.33;1.00;;;23.70;99.90;;;;;;4970895;28;20038;-87
2021/08/11 10:16:54;;;;;;;1.10;1.00;;;23.70;99.80;;;;;;4991552;28;20070;-86
2021/08/11 10:19:26;;;;;;;1.63;1.08;;;23.80;99.70;;;;;;4963487;28;20053;-86
2021/08/11 10:22:14;;;;;;;1.48;1.38;;;23.90;99.00;;;;;;4965562;28;20038;-86
2021/08/11 10:24:42;;;;;;;1.42;1.05;;;24.10;99.50;;;;;;4970303;28;20023;-87
2021/08/11 10:27:09;;;;;;;2.83;1.35;;;24.20;99.10;;;;;;4974042;28;20489;-86
2021/08/11 10:29:38;;;;;;;2.30;1.30;;;24.20;99.80;;;;;;4955455;28;20117;-86
2021/08/11 10:32:07;;;;;;;2.95;1.52;;;24.30;99.30;;;;;;4989399;28;20068;-87
2021/08/11 10:34:34;;;;;;;1.35;1.00;;;24.30;99.90;;;;;;4952232;28;20485;-87
2021/08/11 10:37:00;;;;;;;2.42;1.02;;;24.40;99.00;;;;;;4971740;28;20034;-87
2021/08/11 10:39:30;;;;;;;1.40;1.00;;;24.60;97.20;;;;;;4976051;28;20081;-86
2021/08/11 10:42:01;;;;;;;1.83;1.38;;;24.50;98.20;;;;;;4951915;28;20030;-86
2021/08/11 10:44:28;;;;;;;2.30;1.30;;;24.40;97.60;;;;;;4965606;28;20037;-86
2021/08/11 10:46:57;;;;;;;2.00;1.23;;;24.30;98.30;;;;;;4990100;28;20029;-86
2021/08/11 10:49:27;;;;;;;1.42;1.10;;;24.30;99.60;;;;;;4984532;28;20026;-86
2021/08/11 10:51:58;;;;;;;2.08;1.15;;;24.40;99.90;;;;;;4966030;28;20029;-87
2021/08/11 10:54:24;;;;;;;1.67;1.20;;;24.40;99.90;;;;;;4962845;28;20043;-86
2021/08/11 10:56:55;;;;;;;1.80;1.08;;;24.40;99.90;;;;;;4958849;28;20030;-87
2021/08/11 10:59:24;;;;;;;1.45;1.10;;;24.30;99.90;;;;;;4991502;28;20046;-86
2021/08/11 11:01:57;;;;;;;2.22;1.38;;;24.20;99.90;;;;;;4988713;28;20034;-87
2021/08/11 11:04:43;;;;;;;1.30;1.20;;;24.10;99.90;;;;;;4987086;28;20455;-86
2021/08/11 11:07:09;;;;;;;1.83;1.48;;;24.00;99.90;;;;;;4986232;28;20042;-87
2021/08/11 11:09:39;;;;;;;1.70;1.50;;;23.80;99.90;;;;;;4971355;28;20105;-87
2021/08/11 11:12:34;;;;;;;1.30;1.20;;;23.60;99.90;;;;;;4956770;28;20050;-86
2021/08/11 11:15:01;;;;;;;2.95;1.33;;;23.50;99.90;;;;;;4970756;28;20088;-87
2021/08/11 11:17:28;;;;;;;1.85;1.10;;;23.40;99.90;;;;;;4977069;28;20035;-85
2021/08/11 11:20:03;;;;;;;3.67;1.50;;;23.50;99.90;;;;;;4962644;28;20372;-87
2021/08/11 11:22:35;;;;;;;1.20;1.05;;;23.60;99.90;;;;;;4991171;28;20080;-87
2021/08/11 11:25:01;;;;;;;2.20;1.60;;;23.60;99.90;;;;;;4976310;28;20038;-86
2021/08/11 11:27:42;;;;;;;2.25;1.40;;;23.80;99.90;;;;;;4960846;28;20034;-86
2021/08/11 11:30:11;;;;;;;1.30;1.20;;;23.90;99.90;;;;;;5005008;28;20501;-87
2021/08/11 11:32:37;;;;;;;2.38;1.40;;;24.20;99.90;;;;;;4981740;28;20026;-86
2021/08/11 11:35:15;;;;;;;1.90;1.23;;;24.30;99.90;;;;;;4965443;28;20038;-87
2021/08/11 11:37:41;;;;;;;1.55;1.45;;;24.40;99.90;;;;;;4972098;28;20485;-86
2021/08/11 11:40:08;;;;;;;2.22;1.27;;;24.60;99.90;;;;;;4958312;28;20183;-86
2021/08/11 11:42:34;;;;;;;1.60;1.30;;;24.60;99.90;;;;;;4975782;28;20030;-86
2021/08/11 11:45:02;;;;;;;1.73;1.20;;;24.60;99.40;;;;;;4977839;28;20042;-86
2021/08/11 11:47:44;;;;;;;2.35;1.60;;;24.50;99.90;;;;;;4958697;28;20026;-86
2021/08/11 11:50:20;;;;;;;1.60;1.50;;;24.40;99.90;;;;;;4974739;28;20464;-87
2021/08/11 11:52:52;;;;;;;2.70;1.50;;;24.40;99.90;;;;;;4995637;28;20122;-86
2021/08/11 11:55:32;;;;;;;3.17;1.50;;;24.30;99.90;;;;;;4951963;28;20406;-87
2021/08/11 11:58:03;;;;;;;1.83;1.20;;;24.20;98.70;;;;;;4968562;28;20038;-87
2021/08/11 12:00:29;;;;;;;4.13;1.92;;;24.00;99.30;;;;;;4990579;28;20061;-87
2021/08/11 12:02:56;;;;;;;2.22;1.50;;;23.90;99.90;;;;;;5007799;28;20072;-86
2021/08/11 12:05:22;;;;;;;1.60;1.20;;;23.80;99.90;;;;;;4972064;28;20033;-86
2021/08/11 12:07:48;;;;;;;3.17;1.58;;;23.80;99.90;;;;;;4988611;28;20045;-86
2021/08/11 12:10:30;;;;;;;1.95;1.55;;;23.70;99.90;;;;;;4973466;28;20031;-88
2021/08/11 12:13:02;;;;;;;1.95;1.42;;;23.80;99.80;;;;;;4992288;28;20524;-85
2021/08/11 12:15:30;;;;;;;2.38;1.83;;;23.80;99.90;;;;;;4969703;28;20374;-87
2021/08/11 12:17:57;;;;;;;2.13;1.70;;;23.80;99.90;;;;;;4980959;28;20516;-86
2021/08/11 12:20:35;;;;;;;1.70;1.15;;;24.00;99.90;;;;;;4963901;28;20034;-85
2021/08/11 12:23:15;;;;;;;2.03;1.33;;;24.40;99.90;;;;;;4949091;28;20034;-89
2021/08/11 12:25:41;;;;;;;2.70;1.25;;;24.80;98.40;;;;;;4975117;28;20145;-88
2021/08/11 12:28:23;;;;;;;2.90;1.52;;;25.20;99.90;;;;;;4958293;28;20433;-87
2021/08/11 12:30:57;;;;;;;1.60;1.42;;;25.40;99.90;;;;;;4973055;28;20034;-87
2021/08/11 12:33:26;;;;;;;1.52;1.30;;;25.50;98.70;;;;;;4998833;28;20034;-88
2021/08/11 12:35:53;;;;;;;1.70;1.58;;;25.60;98.00;;;;;;4979929;28;20400;-88
2021/08/11 12:38:33;;;;;;;1.70;1.52;;;25.70;96.30;;;;;;4945312;28;20039;-87
2021/08/11 12:41:13;;;;;;;2.42;1.38;;;25.80;96.80;;;;;;4971969;28;20069;-87
2021/08/11 12:43:39;;;;;;;2.35;1.50;;;25.70;99.20;;;;;;4962806;28;20408;-87
2021/08/11 12:46:05;;;;;;;2.97;1.50;;;25.70;98.60;;;;;;4977178;28;20035;-87
2021/08/11 12:48:33;;;;;;;2.47;1.38;;;25.70;98.30;;;;;;4952235;28;20182;-87
2021/08/11 12:51:02;;;;;;;2.22;1.52;;;25.70;97.40;;;;;;4987168;28;20907;-87
2021/08/11 12:53:34;;;;;;;2.42;1.63;;;25.70;93.80;;;;;;4989330;28;20062;-87
2021/08/11 12:56:11;;;;;;;2.33;1.63;;;25.70;91.60;;;;;;4972692;28;20030;-87